DW5978 Whyalla SA AU current weather conditions

sailwx.info

Wind from 199 at 5 knots gusting 13

Air temperature 17.8° C
Dewpoint 10.6° C

Last reported at 2017-Feb-19 10:38 UTC.
Time now 2017-Feb-19 11:58 UTC

Location: S 33°01' E 137°32'.
View on Google Maps.

See reports from other nearby stations

  
Tides and Currents Weather Stations Pressure Air Temp Water Temp Dewpoint Dewpoint Depression Visibility Wind Speed Wind Dir Waves Ship Positions
date/time (UTC)wind fromknots sea level pressurealtimeterstation pressurevisibilityair tempwater tempwave heightnotes
2017-Feb-19 10:38 199 5 gusting 13 17.8
2017-Feb-19 10:23 201 5 gusting 13 17.8
2017-Feb-19 10:08 215 6 gusting 13 18.3
2017-Feb-19 09:53 170 6 gusting 12 18.3
2017-Feb-19 09:38 198 8 gusting 13 18.3
2017-Feb-19 09:23 184 5 gusting 15 18.9
2017-Feb-19 09:08 204 8 gusting 16 19.4
2017-Feb-19 08:53 181 6 gusting 19 19.4
2017-Feb-19 08:39 207 7 gusting 16 19.4
2017-Feb-19 08:23 135 10 gusting 16 19.4
2017-Feb-19 08:08 162 9 gusting 17 20.0
2017-Feb-19 07:53 210 7 gusting 17 20.6
2017-Feb-19 07:38 188 12 gusting 20 20.6
2017-Feb-19 07:23 162 9 gusting 18 20.6
2017-Feb-19 07:08 160 9 gusting 16 20.6
2017-Feb-19 06:53 156 9 gusting 18 20.6
2017-Feb-19 06:38 156 7 gusting 19 21.1
2017-Feb-19 06:23 165 8 gusting 18 20.6
2017-Feb-19 06:08 174 9 gusting 17 21.1
2017-Feb-19 05:53 162 8 gusting 18 20.6
2017-Feb-19 05:38 170 8 gusting 18 20.6
2017-Feb-19 05:23 177 6 gusting 17 20.0
2017-Feb-19 05:08 150 7 gusting 15 18.9
2017-Feb-19 04:53 176 7 gusting 15 20.6
2017-Feb-19 04:38 129 5 gusting 12 20.0
2017-Feb-19 04:23 114 7 gusting 13 19.4
2017-Feb-19 04:08 170 6 gusting 17 19.4
2017-Feb-19 03:53 222 6 gusting 15 20.0
2017-Feb-19 03:38 115 7 gusting 16 20.0
2017-Feb-19 03:23 170 7 gusting 15 19.4
2017-Feb-19 03:08 129 6 gusting 16 18.9
2017-Feb-19 02:53 170 6 gusting 18 18.9
2017-Feb-19 02:38 174 5 gusting 8 18.3
2017-Feb-19 02:23 198 3 gusting 12 17.8
2017-Feb-19 02:08 207 3 gusting 9 18.3
2017-Feb-19 01:53 240 5 gusting 13 18.3
2017-Feb-19 01:38 204 4 gusting 12 17.8
2017-Feb-19 01:22 167 4 gusting 7 17.2
2017-Feb-19 01:07 207 6 gusting 12 17.8
2017-Feb-19 00:52 153 6 gusting 13 17.8
2017-Feb-19 00:37 181 5 gusting 12 18.3
2017-Feb-19 00:22 174 7 gusting 12 17.2
2017-Feb-19 00:07 222 4 gusting 8 17.2
2017-Feb-18 23:52 212 4 gusting 11 16.7
2017-Feb-18 23:37 199 6 gusting 11 16.1
2017-Feb-18 23:22 190 0 gusting 3 14.4
2017-Feb-18 23:07 181 2 gusting 6 14.4
2017-Feb-18 22:52 159 5 gusting 10 15.0
2017-Feb-18 22:37 246 5 gusting 8 15.0
2017-Feb-18 22:22 225 5 gusting 9 15.0
2017-Feb-18 22:07 193 2 gusting 6 14.4
2017-Feb-18 21:52 204 4 gusting 6 14.4
2017-Feb-18 21:37 210 5 gusting 7 13.9
2017-Feb-18 21:22 238 1 gusting 4 13.9
2017-Feb-18 21:07
2017-Feb-18 20:52
2017-Feb-18 20:37
2017-Feb-18 20:22
2017-Feb-18 20:07
2017-Feb-18 19:52
2017-Feb-18 19:37
2017-Feb-18 19:22
2017-Feb-18 19:06 204 5 gusting 8 14.4
2017-Feb-18 18:51 217 2 gusting 6 13.9
2017-Feb-18 18:36 210 2 gusting 7 13.9
2017-Feb-18 18:21 193 4 gusting 7 13.9
2017-Feb-18 18:06 232 4 gusting 7 13.9
2017-Feb-18 17:51 243 3 gusting 9 13.9
2017-Feb-18 17:36 224 3 gusting 7 14.4
2017-Feb-18 17:21 228 1 gusting 7 13.9
2017-Feb-18 17:14 246 4 gusting 8 13.9
2017-Feb-18 17:09 207 3 gusting 8 13.9
2017-Feb-18 17:00 179 2 gusting 9 14.4
2017-Feb-18 16:50 210 5 gusting 13 15.0
2017-Feb-18 16:29 246 6 gusting 10 15.0
2017-Feb-18 16:08 228 5 gusting 8 15.0
2017-Feb-18 15:44 226 4 gusting 8 15.0
2017-Feb-18 15:23 218 5 gusting 11 15.0
2017-Feb-18 15:02 243 5 gusting 12 14.4
2017-Feb-18 14:44 183 6 gusting 10 14.4
2017-Feb-18 14:27 255 6 gusting 11 14.4
2017-Feb-18 14:11 235 6 gusting 12 15.0
2017-Feb-18 13:57 215 6 gusting 14 15.0
2017-Feb-18 13:39 169 6 gusting 10 15.6
2017-Feb-18 13:23 198 8 gusting 13 16.7
2017-Feb-18 13:07 210 2 gusting 6 15.6
2017-Feb-18 12:51 204 5 gusting 11 16.7
2017-Feb-18 12:36 202 5 gusting 13 17.2
2017-Feb-18 12:21 210 8 gusting 15 17.2
2017-Feb-18 12:06 238 7 gusting 15 17.2
2017-Feb-18 11:51 197 9 gusting 16 17.2
2017-Feb-18 11:36 167 4 gusting 10 16.7
2017-Feb-18 11:21 187 9 gusting 17 17.2
2017-Feb-18 11:06 198 4 gusting 9 17.2
2017-Feb-18 10:51 195 6 gusting 13 17.2
2017-Feb-18 10:36 228 6 gusting 13 17.2
2017-Feb-18 10:21 194 7 gusting 13 17.2
2017-Feb-18 10:06 207 8 gusting 19 17.8
2017-Feb-18 09:51 199 9 gusting 19 17.8
2017-Feb-18 09:36 191 9 gusting 14 17.8
2017-Feb-18 09:21 229 6 gusting 16 18.3
2017-Feb-18 09:06 179 7 gusting 18 18.3
2017-Feb-18 08:51 165 9 gusting 16 18.3
2017-Feb-18 08:36 262 11 gusting 20 18.9
2017-Feb-18 08:21 193 7 gusting 21 18.9
2017-Feb-18 08:05 195 7 gusting 21 19.4
2017-Feb-18 07:51 174 11 gusting 21 19.4
2017-Feb-18 07:35 150 8 gusting 19 19.4
2017-Feb-18 07:21 167 11 gusting 17 19.4
2017-Feb-18 07:05 193 10 gusting 19 20.0
2017-Feb-18 06:51 213 10 gusting 18 20.0
2017-Feb-18 06:35 162 7 gusting 17 20.0
2017-Feb-18 06:20 185 9 gusting 18 20.0
2017-Feb-18 06:05 183 9 gusting 21 20.0
2017-Feb-18 05:50 201 8 gusting 19 20.0
2017-Feb-18 05:20 143 12 gusting 25 20.6
2017-Feb-18 05:05 131 12 gusting 23 20.0
2017-Feb-18 04:50 190 14 gusting 21 19.4
2017-Feb-18 04:35 160 10 gusting 25 21.1
2017-Feb-18 04:21 136 12 gusting 19 21.7
2017-Feb-18 04:05 195 11 gusting 20 21.7
2017-Feb-18 03:50 188 10 gusting 17 21.1
2017-Feb-18 03:35 170 10 gusting 19 21.1
2017-Feb-18 03:20 131 5 gusting 14 21.7
2017-Feb-18 03:05 165 6 gusting 12 21.7
2017-Feb-18 02:50 150 6 gusting 13 21.7
2017-Feb-18 02:22 204 4 gusting 11 22.2
2017-Feb-18 02:05 212 8 gusting 15 21.1
2017-Feb-18 01:50 201 6 gusting 14 21.1
2017-Feb-18 01:36 165 6 gusting 14 21.1
2017-Feb-18 01:20 217 6 gusting 15 21.1
2017-Feb-18 01:05 165 6 gusting 18 21.1
2017-Feb-18 00:50 166 9 gusting 16 20.6
2017-Feb-18 00:35 238 6 gusting 13 20.0
2017-Feb-18 00:20 210 8 gusting 13 20.0
2017-Feb-18 00:05 220 8 gusting 15 20.0
2017-Feb-17 23:50 170 9 gusting 14 20.0
2017-Feb-17 23:35 202 6 gusting 17 18.9
2017-Feb-17 23:20 199 11 gusting 16 18.9
2017-Feb-17 23:05 207 8 gusting 16 18.3
2017-Feb-17 22:51 228 9 gusting 16 17.8
2017-Feb-17 22:41 220 9 gusting 17 17.8
2017-Feb-17 22:31 193 11 gusting 15 17.2
2017-Feb-17 22:22 222 6 gusting 13 17.2
2017-Feb-17 22:12 218 8 gusting 14 16.7
2017-Feb-17 22:05 219 5 gusting 9 16.1
2017-Feb-17 21:55 240 5 gusting 10 15.6
2017-Feb-17 21:44
2017-Feb-17 21:29
2017-Feb-17 21:17
2017-Feb-17 21:02
2017-Feb-17 20:48
2017-Feb-17 20:36
2017-Feb-17 20:21
2017-Feb-17 20:05
2017-Feb-17 19:48
2017-Feb-17 19:32 240 2 gusting 6 14.4
2017-Feb-17 19:16 260 3 gusting 6 14.4
2017-Feb-17 19:01 260 2 gusting 6 15.0
2017-Feb-17 18:42 246 3 gusting 6 15.0
2017-Feb-17 18:25 257 1 gusting 5 15.0
2017-Feb-17 18:08 233 2 gusting 5 15.6
2017-Feb-17 17:52 246 1 gusting 6 15.6
2017-Feb-17 17:32 210 5 gusting 8 16.1
2017-Feb-17 17:14 224 4 gusting 12 16.1
2017-Feb-17 16:54 246 5 gusting 11 16.1
2017-Feb-17 16:36 212 6 gusting 9 16.7
2017-Feb-17 16:18 222 6 gusting 8 16.7
2017-Feb-17 15:59 210 6 gusting 12 16.7
2017-Feb-17 15:43 231 5 gusting 8 17.2
2017-Feb-17 15:25 212 5 gusting 9 17.2
2017-Feb-17 15:09 236 5 gusting 8 17.8
2017-Feb-17 14:54 231 4 gusting 6 17.8
2017-Feb-17 14:38 243 3 gusting 7 17.8
2017-Feb-17 14:23 221 5 gusting 9 17.8
2017-Feb-17 14:06 193 3 gusting 6 17.8
2017-Feb-17 13:51 204 2 gusting 6 18.3
2017-Feb-17 13:33 197 4 gusting 7 18.3
2017-Feb-17 13:19 226 3 gusting 8 18.3
2017-Feb-17 13:03 235 2 gusting 7 18.9
2017-Feb-17 12:48 204 6 gusting 9 18.9
2017-Feb-17 12:33 160 5 gusting 10 19.4
2017-Feb-17 12:18 201 6 gusting 11 19.4
2017-Feb-17 12:03 205 6 gusting 11 19.4
2017-Feb-17 11:48 185 6 gusting 12 19.4
2017-Feb-17 11:33 204 4 gusting 9 19.4
2017-Feb-17 11:18 184 6 gusting 10 19.4